createdAt,value
2019-03-21T00:01:41.166Z,3.40
2019-03-21T00:04:13.139Z,3.40
2019-03-21T00:06:42.951Z,3.50
2019-03-21T00:09:15.061Z,3.40
2019-03-21T00:12:01.989Z,3.40
2019-03-21T00:14:55.439Z,3.30
2019-03-21T00:17:28.578Z,2.90
2019-03-21T00:19:58.568Z,2.80
2019-03-21T00:22:28.358Z,2.90
2019-03-21T00:24:58.294Z,3.00
2019-03-21T00:27:28.313Z,2.80
2019-03-21T00:29:58.168Z,2.80
2019-03-21T00:32:27.918Z,2.70
2019-03-21T00:34:58.091Z,2.60
2019-03-21T00:37:27.955Z,2.70
2019-03-21T00:39:57.813Z,2.80
2019-03-21T00:42:27.781Z,2.90
2019-03-21T00:44:57.620Z,2.80
2019-03-21T00:47:27.496Z,2.70
2019-03-21T00:49:57.509Z,2.70
2019-03-21T00:52:27.481Z,2.80
2019-03-21T00:54:57.272Z,2.90
2019-03-21T00:57:27.181Z,2.70
2019-03-21T00:59:57.046Z,2.60
2019-03-21T01:02:26.904Z,2.50
2019-03-21T01:04:56.680Z,2.50
2019-03-21T01:07:26.526Z,2.50
2019-03-21T01:09:56.367Z,2.50
2019-03-21T01:12:26.137Z,2.60
2019-03-21T01:14:55.992Z,2.60
2019-03-21T01:17:25.887Z,2.60
2019-03-21T01:19:55.639Z,2.50
2019-03-21T01:22:25.483Z,2.50
2019-03-21T01:24:55.303Z,2.50
2019-03-21T01:27:25.329Z,2.60
2019-03-21T01:29:55.140Z,2.40
2019-03-21T01:32:25.105Z,2.20
2019-03-21T01:34:54.942Z,2.10
2019-03-21T01:37:24.688Z,2.10
2019-03-21T01:39:54.535Z,2.10
2019-03-21T01:42:24.400Z,2.20
2019-03-21T01:44:54.313Z,2.10
2019-03-21T01:47:24.163Z,2.10
2019-03-21T01:49:54.017Z,2.20
2019-03-21T01:52:23.822Z,2.20
2019-03-21T01:54:53.894Z,2.00
2019-03-21T01:57:23.740Z,2.00
2019-03-21T01:59:53.483Z,2.00
2019-03-21T02:02:23.577Z,2.00
2019-03-21T02:04:53.606Z,2.10
2019-03-21T02:07:23.600Z,2.20
2019-03-21T02:09:53.409Z,2.20
2019-03-21T02:12:23.232Z,2.20
2019-03-21T02:14:53.021Z,2.10
2019-03-21T02:17:22.928Z,1.80
2019-03-21T02:19:52.819Z,1.70
2019-03-21T02:22:22.804Z,1.80
2019-03-21T02:24:52.721Z,1.90
2019-03-21T02:27:22.730Z,2.00
2019-03-21T02:29:52.487Z,2.00
2019-03-21T02:32:22.325Z,1.90
2019-03-21T02:34:59.171Z,1.80
2019-03-21T02:37:29.265Z,1.90
2019-03-21T02:40:00.454Z,1.70
2019-03-21T02:42:30.589Z,1.60
2019-03-21T02:45:08.330Z,1.70
2019-03-21T02:47:32.059Z,1.70
2019-03-21T02:50:01.852Z,1.60
2019-03-21T02:52:31.935Z,1.50
2019-03-21T02:55:01.770Z,1.50
2019-03-21T02:57:31.563Z,1.60
2019-03-21T03:00:01.679Z,1.70
2019-03-21T03:02:31.411Z,1.70
2019-03-21T03:05:01.287Z,1.60
2019-03-21T03:07:31.096Z,1.50
2019-03-21T03:10:01.038Z,1.60
2019-03-21T03:12:30.826Z,1.60
2019-03-21T03:15:00.823Z,1.60
2019-03-21T03:17:30.610Z,1.60
2019-03-21T03:20:00.647Z,1.40
2019-03-21T03:22:30.579Z,1.40
2019-03-21T03:25:00.433Z,1.50
2019-03-21T03:27:30.485Z,1.40
2019-03-21T03:30:00.649Z,1.50
2019-03-21T03:32:30.592Z,1.50
2019-03-21T03:35:01.033Z,1.50
2019-03-21T03:37:31.008Z,1.50
2019-03-21T03:40:00.828Z,1.30
2019-03-21T03:42:30.626Z,1.20
2019-03-21T03:45:00.447Z,1.20
2019-03-21T03:47:30.611Z,1.30
2019-03-21T03:50:00.510Z,1.40
2019-03-21T03:52:30.419Z,1.30
2019-03-21T03:55:00.497Z,1.40
2019-03-21T03:57:30.431Z,1.40
2019-03-21T04:00:00.454Z,1.30
2019-03-21T04:02:30.987Z,1.10
2019-03-21T04:05:00.800Z,1.10
2019-03-21T04:07:30.697Z,1.10
2019-03-21T04:10:00.565Z,1.00
2019-03-21T04:12:30.511Z,1.10
2019-03-21T04:15:00.376Z,1.20
2019-03-21T04:17:30.520Z,1.30
2019-03-21T04:20:00.460Z,1.20
2019-03-21T04:22:30.389Z,1.10
2019-03-21T04:25:00.423Z,1.20
2019-03-21T04:27:30.269Z,1.20
2019-03-21T04:30:00.042Z,1.10
2019-03-21T04:32:29.825Z,1.20
2019-03-21T04:34:59.596Z,1.20
2019-03-21T04:37:29.538Z,1.20
2019-03-21T04:39:59.489Z,1.20
2019-03-21T04:42:29.230Z,1.20
2019-03-21T04:44:59.136Z,1.10
2019-03-21T04:47:28.989Z,1.10
2019-03-21T04:49:58.776Z,1.10
2019-03-21T04:52:28.803Z,1.00
2019-03-21T04:54:58.602Z,0.90
2019-03-21T04:57:28.377Z,0.90
2019-03-21T04:59:58.220Z,1.00
2019-03-21T05:02:28.080Z,1.00
2019-03-21T05:04:57.876Z,1.00
2019-03-21T05:07:27.598Z,1.00
2019-03-21T05:09:57.560Z,0.90
2019-03-21T05:12:27.908Z,0.90
2019-03-21T05:14:57.736Z,0.90
2019-03-21T05:17:27.459Z,0.90
2019-03-21T05:19:57.312Z,0.80
2019-03-21T05:22:28.337Z,0.70
2019-03-21T05:24:58.098Z,0.60
2019-03-21T05:27:27.877Z,0.60
2019-03-21T05:29:57.820Z,0.70
2019-03-21T05:32:27.638Z,0.80
2019-03-21T05:34:57.491Z,0.80
2019-03-21T05:37:27.438Z,0.70
2019-03-21T05:39:57.264Z,0.50
2019-03-21T05:42:27.110Z,0.50
2019-03-21T05:44:57.059Z,0.60
2019-03-21T05:47:26.816Z,0.80
2019-03-21T05:49:56.675Z,1.00
2019-03-21T05:52:26.553Z,1.00
2019-03-21T05:54:56.448Z,1.00
2019-03-21T05:57:26.242Z,1.10
2019-03-21T05:59:56.120Z,1.10
2019-03-21T06:02:25.969Z,1.10
2019-03-21T06:04:55.825Z,1.00
2019-03-21T06:07:39.444Z,1.10
2019-03-21T06:10:11.120Z,1.20
2019-03-21T06:12:47.448Z,1.30
2019-03-21T06:15:23.517Z,1.40
2019-03-21T06:18:31.228Z,1.50
2019-03-21T06:21:15.263Z,1.70
2019-03-21T06:24:25.709Z,1.80
2019-03-21T06:27:00.583Z,1.90
2019-03-21T06:29:30.514Z,2.00
2019-03-21T06:32:00.635Z,2.10
2019-03-21T06:34:30.699Z,2.30
2019-03-21T06:37:00.631Z,2.30
2019-03-21T06:39:30.680Z,2.40
2019-03-21T06:42:00.671Z,2.50
2019-03-21T06:44:30.771Z,2.60
2019-03-21T06:47:00.690Z,2.70
2019-03-21T06:49:30.583Z,2.70
2019-03-21T06:52:00.411Z,2.80
2019-03-21T06:54:30.280Z,2.90
2019-03-21T06:57:02.369Z,3.00
2019-03-21T06:59:31.830Z,3.10
2019-03-21T07:02:01.664Z,3.10
2019-03-21T07:04:31.519Z,3.30
2019-03-21T07:07:07.998Z,3.50
2019-03-21T07:09:33.278Z,3.60
2019-03-21T07:12:21.894Z,3.80
2019-03-21T07:14:51.736Z,4.00
2019-03-21T07:17:23.032Z,4.10
2019-03-21T07:19:53.186Z,4.20
2019-03-21T07:22:22.993Z,4.40
2019-03-21T07:24:52.856Z,4.60
2019-03-21T07:27:22.723Z,4.80
2019-03-21T07:29:52.747Z,5.00
2019-03-21T07:32:32.900Z,5.10
2019-03-21T07:34:54.174Z,5.10
2019-03-21T07:37:24.343Z,5.30
2019-03-21T07:39:54.200Z,5.50
2019-03-21T07:42:24.025Z,5.60
2019-03-21T07:44:53.933Z,5.60
2019-03-21T07:47:23.804Z,5.80
2019-03-21T07:49:53.723Z,6.10
2019-03-21T07:52:23.629Z,6.40
2019-03-21T07:54:53.662Z,6.60
2019-03-21T07:57:23.466Z,7.10
2019-03-21T07:59:53.476Z,7.10
2019-03-21T08:02:23.337Z,7.20
2019-03-21T08:04:53.405Z,7.50
2019-03-21T08:07:23.171Z,8.10
2019-03-21T08:09:53.471Z,8.20
2019-03-21T08:12:23.329Z,7.80
2019-03-21T08:14:53.216Z,8.00
2019-03-21T08:17:23.155Z,8.30
2019-03-21T08:19:53.263Z,8.50
2019-03-21T08:22:23.221Z,8.70
2019-03-21T08:24:53.094Z,9.40
2019-03-21T08:27:22.945Z,9.70
2019-03-21T08:29:52.771Z,9.20
2019-03-21T08:32:22.724Z,9.20
2019-03-21T08:34:52.829Z,9.50
2019-03-21T08:37:22.782Z,9.50
2019-03-21T08:39:52.634Z,10.00
2019-03-21T08:42:22.585Z,10.10
2019-03-21T08:44:52.405Z,10.60
2019-03-21T08:47:22.577Z,11.10
2019-03-21T08:49:52.319Z,10.80
2019-03-21T08:52:22.331Z,10.90
2019-03-21T08:54:52.100Z,10.70
2019-03-21T08:57:21.948Z,10.50
2019-03-21T08:59:51.791Z,10.80
2019-03-21T09:02:21.600Z,11.10
2019-03-21T09:04:51.658Z,11.40
2019-03-21T09:07:21.525Z,11.30
2019-03-21T09:09:51.260Z,11.70
2019-03-21T09:12:21.269Z,11.80
2019-03-21T09:14:51.117Z,11.80
2019-03-21T09:17:21.006Z,11.40
2019-03-21T09:19:50.850Z,11.40
2019-03-21T09:22:20.724Z,11.80
2019-03-21T09:24:50.598Z,12.40
2019-03-21T09:27:20.458Z,12.70
2019-03-21T09:29:53.786Z,12.60
2019-03-21T09:32:22.248Z,12.50
2019-03-21T09:34:52.141Z,12.70
2019-03-21T09:37:22.031Z,13.10
2019-03-21T09:39:51.854Z,13.70
2019-03-21T09:42:21.735Z,13.50
2019-03-21T09:44:51.574Z,13.90
2019-03-21T09:47:21.391Z,14.20
2019-03-21T09:49:51.191Z,13.30
2019-03-21T09:52:21.034Z,12.70
2019-03-21T09:54:51.404Z,12.90
2019-03-21T09:57:21.130Z,13.10
2019-03-21T09:59:51.035Z,13.40
2019-03-21T10:02:20.996Z,14.10
2019-03-21T10:04:50.835Z,14.50
2019-03-21T10:07:20.662Z,14.90
2019-03-21T10:09:50.742Z,14.70
2019-03-21T10:12:20.591Z,14.20
2019-03-21T10:14:50.596Z,14.30
2019-03-21T10:17:20.337Z,14.70
2019-03-21T10:19:50.195Z,15.20
2019-03-21T10:22:20.067Z,15.40
2019-03-21T10:24:49.951Z,15.60
2019-03-21T10:27:19.794Z,15.40
2019-03-21T10:29:49.672Z,14.40
2019-03-21T10:32:19.515Z,14.90
2019-03-21T10:34:49.246Z,15.20
2019-03-21T10:37:19.155Z,15.40
2019-03-21T10:39:48.998Z,15.50
2019-03-21T10:42:18.876Z,15.50
2019-03-21T10:44:48.649Z,15.80
2019-03-21T10:47:18.361Z,15.90
2019-03-21T10:49:48.119Z,15.70
2019-03-21T10:52:17.948Z,15.80
2019-03-21T10:54:47.812Z,16.00
2019-03-21T10:57:17.763Z,16.30
2019-03-21T10:59:47.673Z,16.40
2019-03-21T11:02:17.429Z,16.00
2019-03-21T11:04:47.319Z,15.90
2019-03-21T11:07:15.005Z,16.10
2019-03-21T11:09:44.794Z,15.80
2019-03-21T11:12:14.930Z,15.90
2019-03-21T11:14:44.925Z,15.80
2019-03-21T11:17:14.780Z,16.30
2019-03-21T11:19:44.618Z,16.20
2019-03-21T11:22:14.439Z,16.40
2019-03-21T11:24:44.315Z,16.20
2019-03-21T11:27:14.204Z,15.30
2019-03-21T11:29:44.100Z,15.30
2019-03-21T11:32:13.989Z,15.40
2019-03-21T11:34:44.209Z,15.90
2019-03-21T11:37:14.087Z,15.90
2019-03-21T11:39:43.853Z,16.30
2019-03-21T11:42:13.730Z,16.30
2019-03-21T11:44:43.825Z,16.00
2019-03-21T11:47:13.709Z,16.00
2019-03-21T11:49:43.504Z,15.80
2019-03-21T11:52:18.137Z,15.70
2019-03-21T11:54:45.209Z,16.20
2019-03-21T11:57:15.012Z,16.70
2019-03-21T11:59:51.473Z,16.90
2019-03-21T12:02:26.566Z,17.30
2019-03-21T12:04:47.955Z,17.10
2019-03-21T12:07:17.778Z,17.10
2019-03-21T12:09:47.699Z,17.40
2019-03-21T12:12:17.571Z,17.80
2019-03-21T12:14:47.413Z,17.60
2019-03-21T12:17:17.326Z,17.70
2019-03-21T12:19:47.230Z,17.70
2019-03-21T12:22:17.012Z,18.20
2019-03-21T12:24:46.848Z,17.90
2019-03-21T12:27:16.793Z,16.80
2019-03-21T12:29:46.701Z,16.80
2019-03-21T12:32:16.522Z,16.90
2019-03-21T12:34:46.503Z,16.90
2019-03-21T12:37:16.722Z,17.20
2019-03-21T12:39:46.576Z,17.20
2019-03-21T12:42:16.648Z,16.90
2019-03-21T12:44:46.490Z,16.60
2019-03-21T12:47:16.560Z,16.30
2019-03-21T12:49:46.448Z,16.50
2019-03-21T12:52:16.287Z,16.90
2019-03-21T12:54:46.232Z,17.20
2019-03-21T12:57:16.177Z,17.40
2019-03-21T12:59:45.910Z,17.30
2019-03-21T13:02:15.997Z,17.10
2019-03-21T13:04:45.863Z,17.20
2019-03-21T13:07:16.573Z,16.90
2019-03-21T13:09:46.664Z,16.90
2019-03-21T13:12:16.536Z,16.80
2019-03-21T13:14:46.420Z,16.50
2019-03-21T13:17:16.358Z,16.10
2019-03-21T13:19:46.229Z,16.30
2019-03-21T13:22:16.349Z,16.20
2019-03-21T13:24:46.207Z,16.30
2019-03-21T13:27:16.072Z,16.50
2019-03-21T13:29:45.946Z,16.80
2019-03-21T13:32:15.769Z,16.20
2019-03-21T13:34:45.685Z,16.30
2019-03-21T13:37:15.553Z,16.30
2019-03-21T13:39:45.370Z,16.50
2019-03-21T13:42:15.271Z,16.80
2019-03-21T13:44:45.066Z,16.90
2019-03-21T13:47:14.869Z,16.60
2019-03-21T13:49:44.685Z,16.70
2019-03-21T13:52:14.530Z,16.70
2019-03-21T13:54:44.594Z,16.30
2019-03-21T13:57:14.445Z,16.30
2019-03-21T13:59:44.422Z,16.30
2019-03-21T14:02:14.342Z,16.70
2019-03-21T14:04:44.204Z,16.80
2019-03-21T14:07:14.120Z,16.60
2019-03-21T14:09:43.983Z,16.40
2019-03-21T14:12:13.849Z,16.40
2019-03-21T14:14:44.091Z,16.30
2019-03-21T14:17:21.847Z,16.20
2019-03-21T14:19:45.596Z,16.20
2019-03-21T14:22:15.512Z,16.40
2019-03-21T14:24:45.374Z,16.50
2019-03-21T14:27:15.266Z,16.30
2019-03-21T14:29:45.366Z,16.40
2019-03-21T14:32:15.227Z,16.20
2019-03-21T14:34:45.123Z,16.20
2019-03-21T14:37:15.359Z,16.20
2019-03-21T14:39:45.080Z,16.10
2019-03-21T14:42:14.851Z,16.10
2019-03-21T14:44:44.765Z,16.30
2019-03-21T14:47:14.720Z,16.40
2019-03-21T14:49:44.481Z,16.30
2019-03-21T14:52:14.307Z,16.40
2019-03-21T14:54:44.074Z,16.40
2019-03-21T14:57:14.006Z,16.60
2019-03-21T14:59:43.855Z,16.30
2019-03-21T15:02:13.820Z,16.30
2019-03-21T15:04:43.643Z,16.40
2019-03-21T15:07:13.750Z,16.40
2019-03-21T15:09:43.769Z,16.20
2019-03-21T15:12:13.747Z,16.20
2019-03-21T15:14:43.891Z,16.10
2019-03-21T15:17:13.935Z,16.10
2019-03-21T15:19:43.792Z,16.10
2019-03-21T15:22:13.638Z,16.00
2019-03-21T15:24:43.925Z,16.10
2019-03-21T15:27:13.934Z,16.10
2019-03-21T15:29:43.882Z,16.00
2019-03-21T15:32:13.874Z,16.00
2019-03-21T15:34:43.724Z,16.00
2019-03-21T15:37:13.654Z,15.90
2019-03-21T15:39:43.856Z,16.00
2019-03-21T15:42:13.690Z,15.90
2019-03-21T15:44:45.956Z,15.90
2019-03-21T15:47:16.119Z,15.80
2019-03-21T15:49:46.299Z,15.70
2019-03-21T15:52:16.133Z,15.70
2019-03-21T15:54:46.155Z,15.60
2019-03-21T15:57:16.422Z,15.70
2019-03-21T15:59:46.805Z,15.70
2019-03-21T16:02:16.748Z,15.60
2019-03-21T16:04:50.971Z,15.60
2019-03-21T16:07:20.823Z,15.50
2019-03-21T16:09:50.853Z,15.40
2019-03-21T16:12:20.646Z,15.40
2019-03-21T16:14:50.449Z,15.40
2019-03-21T16:17:20.392Z,15.30
2019-03-21T16:19:50.258Z,15.30
2019-03-21T16:22:20.138Z,15.20
2019-03-21T16:24:50.009Z,15.20
2019-03-21T16:27:19.868Z,15.20
2019-03-21T16:29:49.747Z,15.20
2019-03-21T16:32:19.617Z,15.10
2019-03-21T16:34:49.486Z,15.10
2019-03-21T16:37:19.540Z,15.00
2019-03-21T16:39:49.528Z,14.90
2019-03-21T16:42:19.369Z,14.90
2019-03-21T16:44:49.162Z,14.90
2019-03-21T16:47:19.017Z,14.80
2019-03-21T16:49:48.884Z,14.80
2019-03-21T16:52:18.795Z,14.70
2019-03-21T16:54:48.630Z,14.60
2019-03-21T16:57:18.493Z,14.60
2019-03-21T16:59:48.329Z,14.50
2019-03-21T17:02:18.175Z,14.40
2019-03-21T17:04:48.317Z,14.40
2019-03-21T17:07:18.109Z,14.30
2019-03-21T17:09:48.007Z,14.20
2019-03-21T17:12:17.875Z,14.10
2019-03-21T17:14:47.984Z,13.90
2019-03-21T17:17:17.857Z,13.90
2019-03-21T17:19:47.906Z,13.80
2019-03-21T17:22:18.719Z,13.80
2019-03-21T17:24:48.644Z,13.70
2019-03-21T17:27:18.485Z,13.60
2019-03-21T17:29:48.426Z,13.50
2019-03-21T17:32:18.315Z,13.30
2019-03-21T17:34:48.180Z,13.30
2019-03-21T17:37:18.237Z,13.20
2019-03-21T17:39:48.105Z,13.10
2019-03-21T17:42:17.902Z,13.00
2019-03-21T17:44:47.885Z,12.90
2019-03-21T17:47:17.993Z,12.80
2019-03-21T17:49:47.942Z,12.70
2019-03-21T17:52:17.758Z,12.60
2019-03-21T17:54:47.708Z,12.40
2019-03-21T17:57:17.847Z,12.30
2019-03-21T17:59:47.739Z,12.20
2019-03-21T18:02:17.611Z,12.10
2019-03-21T18:04:47.447Z,12.00
2019-03-21T18:07:17.336Z,11.90
2019-03-21T18:09:47.193Z,11.90
2019-03-21T18:12:17.661Z,11.80
2019-03-21T18:14:47.564Z,11.80
2019-03-21T18:17:17.424Z,11.70
2019-03-21T18:19:47.312Z,11.70
2019-03-21T18:22:17.077Z,11.60
2019-03-21T18:24:53.808Z,11.60
2019-03-21T18:27:18.492Z,11.60
2019-03-21T18:29:48.415Z,11.70
2019-03-21T18:32:18.345Z,11.70
2019-03-21T18:34:48.217Z,11.60
2019-03-21T18:37:18.331Z,11.60
2019-03-21T18:39:48.218Z,11.50
2019-03-21T18:42:18.093Z,11.50
2019-03-21T18:44:50.399Z,11.40
2019-03-21T18:47:20.137Z,11.30
2019-03-21T18:49:50.114Z,11.20
2019-03-21T18:52:20.222Z,11.20
2019-03-21T18:54:50.099Z,11.10
2019-03-21T18:57:19.958Z,10.90
2019-03-21T18:59:49.941Z,10.90
2019-03-21T19:02:20.062Z,10.90
2019-03-21T19:04:49.903Z,10.80
2019-03-21T19:07:19.832Z,10.70
2019-03-21T19:09:49.686Z,10.70
2019-03-21T19:12:19.590Z,10.60
2019-03-21T19:14:49.649Z,10.60
2019-03-21T19:17:19.560Z,10.60
2019-03-21T19:19:49.791Z,10.50
2019-03-21T19:22:19.668Z,10.40
2019-03-21T19:24:49.537Z,10.30
2019-03-21T19:27:19.410Z,10.20
2019-03-21T19:29:49.516Z,10.10
2019-03-21T19:32:19.417Z,10.10
2019-03-21T19:34:49.347Z,10.00
2019-03-21T19:37:19.516Z,9.90
2019-03-21T19:39:49.609Z,9.80
2019-03-21T19:42:19.574Z,9.70
2019-03-21T19:44:49.409Z,9.70
2019-03-21T19:47:25.699Z,9.70
2019-03-21T19:49:51.124Z,9.70
2019-03-21T19:52:21.035Z,9.70
2019-03-21T19:54:51.049Z,9.40
2019-03-21T19:57:22.583Z,9.20
2019-03-21T19:59:53.201Z,9.20
2019-03-21T20:02:23.373Z,9.20
2019-03-21T20:04:53.260Z,9.20
2019-03-21T20:07:23.514Z,9.20
2019-03-21T20:09:53.499Z,9.00
2019-03-21T20:12:23.424Z,8.90
2019-03-21T20:14:53.445Z,8.90
2019-03-21T20:17:23.341Z,8.90
2019-03-21T20:19:53.187Z,9.00
2019-03-21T20:22:23.217Z,8.90
2019-03-21T20:24:53.068Z,8.70
2019-03-21T20:27:23.071Z,8.60
2019-03-21T20:29:53.034Z,8.60
2019-03-21T20:32:23.032Z,8.60
2019-03-21T20:34:53.176Z,8.40
2019-03-21T20:37:23.067Z,8.30
2019-03-21T20:39:53.408Z,8.30
2019-03-21T20:42:23.363Z,8.20
2019-03-21T20:44:53.497Z,8.30
2019-03-21T20:47:23.397Z,8.30
2019-03-21T20:49:53.362Z,8.20
2019-03-21T20:52:23.265Z,8.20
2019-03-21T20:54:53.309Z,8.00
2019-03-21T20:57:23.223Z,8.10
2019-03-21T20:59:53.152Z,8.10
2019-03-21T21:02:22.966Z,8.00
2019-03-21T21:04:52.829Z,7.90
2019-03-21T21:07:22.855Z,7.90
2019-03-21T21:09:52.729Z,7.80
2019-03-21T21:12:22.522Z,7.70
2019-03-21T21:14:52.446Z,7.70
2019-03-21T21:17:22.321Z,7.60
2019-03-21T21:19:52.245Z,7.60
2019-03-21T21:22:22.342Z,7.60
2019-03-21T21:24:52.490Z,7.40
2019-03-21T21:27:22.275Z,7.30
2019-03-21T21:29:52.250Z,7.20
2019-03-21T21:32:22.172Z,7.10
2019-03-21T21:34:54.492Z,7.10
2019-03-21T21:37:23.841Z,7.20
2019-03-21T21:39:53.694Z,7.30
2019-03-21T21:42:24.336Z,7.20
2019-03-21T21:44:54.170Z,7.20
2019-03-21T21:47:24.082Z,7.20
2019-03-21T21:49:54.041Z,7.10
2019-03-21T21:52:23.885Z,7.00
2019-03-21T21:54:53.914Z,6.90
2019-03-21T21:57:23.793Z,6.90
2019-03-21T21:59:53.867Z,6.80
2019-03-21T22:02:23.853Z,6.90
2019-03-21T22:04:53.700Z,6.80
2019-03-21T22:07:23.612Z,6.80
2019-03-21T22:09:53.459Z,6.70
2019-03-21T22:12:23.742Z,6.50
2019-03-21T22:14:53.722Z,6.50
2019-03-21T22:17:23.819Z,6.50
2019-03-21T22:19:53.706Z,6.50
2019-03-21T22:22:23.829Z,6.60
2019-03-21T22:24:54.033Z,6.50
2019-03-21T22:27:24.174Z,6.50
2019-03-21T22:29:54.030Z,6.50
2019-03-21T22:32:23.839Z,6.40
2019-03-21T22:34:53.760Z,6.40
2019-03-21T22:37:23.575Z,6.30
2019-03-21T22:39:53.436Z,6.30
2019-03-21T22:42:23.325Z,6.30
2019-03-21T22:44:53.158Z,6.30
2019-03-21T22:47:23.016Z,6.30
2019-03-21T22:49:53.056Z,6.30
2019-03-21T22:52:22.892Z,6.30
2019-03-21T22:54:53.066Z,6.20
2019-03-21T22:57:22.867Z,6.10
2019-03-21T22:59:52.900Z,6.10
2019-03-21T23:02:22.986Z,6.10
2019-03-21T23:04:52.891Z,6.00
2019-03-21T23:07:23.013Z,5.90
2019-03-21T23:09:52.881Z,5.90
2019-03-21T23:12:22.757Z,5.90
2019-03-21T23:14:52.605Z,5.80
2019-03-21T23:17:22.507Z,5.80
2019-03-21T23:19:52.504Z,5.80
2019-03-21T23:22:22.310Z,5.80
2019-03-21T23:24:52.180Z,5.90
2019-03-21T23:27:22.071Z,5.90
2019-03-21T23:29:51.942Z,5.80
2019-03-21T23:32:21.771Z,5.70
2019-03-21T23:34:51.613Z,5.70
2019-03-21T23:37:21.477Z,5.60
2019-03-21T23:39:51.318Z,5.50
2019-03-21T23:42:21.261Z,5.50
2019-03-21T23:44:51.030Z,5.40
2019-03-21T23:47:20.827Z,5.30
2019-03-21T23:49:50.616Z,5.20
2019-03-21T23:52:20.437Z,5.20
2019-03-21T23:54:50.277Z,5.20
2019-03-21T23:57:20.032Z,5.30
2019-03-21T23:59:50.154Z,5.30
